<?xml version="1.0" encoding="UTF-8" standalone="no" ?>
<gpx xmlns="http://www.topografix.com/GPX/1/1" xmlns:xsi="http://www.w3.org/2001/XMLSchema-instance" xsi:schemaLocation="http://www.topografix.com/GPX/1/1 http://www.topografix.com/GPX/1/1/gpx.xsd" version="1.1" creator="VisuGPX - https://www.visugpx.com">
  <metadata>
    <name>Le Cheylard - Saint Michel d\'Aurance</name>
    <desc><![CDATA[Le Cheylard à Saint Michel d\'Aurance par la route des Dragonnades]]></desc>
  </metadata>
  <trk>
    <name><![CDATA[Tracé]]></name>
    <trkseg>
      <trkpt lat="44.9058" lon="4.42428">
        <ele>395</ele>
        <time>2011-02-26T13:27:05Z</time>
      </trkpt>
      <trkpt lat="44.90578" lon="4.42427">
        <ele>398</ele>
        <time>2011-02-26T13:27:14Z</time>
      </trkpt>
      <trkpt lat="44.90577" lon="4.42428">
        <ele>407</ele>
        <time>2011-02-26T13:27:25Z</time>
      </trkpt>
      <trkpt lat="44.90579" lon="4.4243">
        <ele>411</ele>
        <time>2011-02-26T13:27:30Z</time>
      </trkpt>
      <trkpt lat="44.90582" lon="4.42433">
        <ele>414</ele>
        <time>2011-02-26T13:27:35Z</time>
      </trkpt>
      <trkpt lat="44.90586" lon="4.42432">
        <ele>417</ele>
        <time>2011-02-26T13:27:45Z</time>
      </trkpt>
      <trkpt lat="44.90597" lon="4.42439">
        <ele>421</ele>
        <time>2011-02-26T13:27:55Z</time>
      </trkpt>
      <trkpt lat="44.906" lon="4.42438">
        <ele>422</ele>
        <time>2011-02-26T13:27:58Z</time>
      </trkpt>
      <trkpt lat="44.90604" lon="4.42439">
        <ele>424</ele>
        <time>2011-02-26T13:28:03Z</time>
      </trkpt>
      <trkpt lat="44.90619" lon="4.42442">
        <ele>427</ele>
        <time>2011-02-26T13:28:21Z</time>
      </trkpt>
      <trkpt lat="44.90622" lon="4.42454">
        <ele>427</ele>
        <time>2011-02-26T13:28:41Z</time>
      </trkpt>
      <trkpt lat="44.90627" lon="4.42455">
        <ele>427</ele>
        <time>2011-02-26T13:28:59Z</time>
      </trkpt>
      <trkpt lat="44.90634" lon="4.42455">
        <ele>428</ele>
        <time>2011-02-26T13:29:10Z</time>
      </trkpt>
      <trkpt lat="44.90634" lon="4.42466">
        <ele>429</ele>
        <time>2011-02-26T13:29:24Z</time>
      </trkpt>
      <trkpt lat="44.90644" lon="4.42464">
        <ele>432</ele>
        <time>2011-02-26T13:29:39Z</time>
      </trkpt>
      <trkpt lat="44.90635" lon="4.42505">
        <ele>434</ele>
        <time>2011-02-26T13:29:59Z</time>
      </trkpt>
      <trkpt lat="44.90647" lon="4.42514">
        <ele>434</ele>
        <time>2011-02-26T13:30:12Z</time>
      </trkpt>
      <trkpt lat="44.90654" lon="4.42527">
        <ele>434</ele>
        <time>2011-02-26T13:30:20Z</time>
      </trkpt>
      <trkpt lat="44.9066" lon="4.42536">
        <ele>435</ele>
        <time>2011-02-26T13:30:27Z</time>
      </trkpt>
      <trkpt lat="44.90664" lon="4.42544">
        <ele>435</ele>
        <time>2011-02-26T13:30:32Z</time>
      </trkpt>
      <trkpt lat="44.90667" lon="4.42547">
        <ele>436</ele>
        <time>2011-02-26T13:30:35Z</time>
      </trkpt>
      <trkpt lat="44.90674" lon="4.42557">
        <ele>437</ele>
        <time>2011-02-26T13:30:44Z</time>
      </trkpt>
      <trkpt lat="44.90674" lon="4.42569">
        <ele>438</ele>
        <time>2011-02-26T13:30:53Z</time>
      </trkpt>
      <trkpt lat="44.90677" lon="4.42581">
        <ele>440</ele>
        <time>2011-02-26T13:31:06Z</time>
      </trkpt>
      <trkpt lat="44.90673" lon="4.42585">
        <ele>442</ele>
        <time>2011-02-26T13:31:17Z</time>
      </trkpt>
      <trkpt lat="44.90672" lon="4.42587">
        <ele>443</ele>
        <time>2011-02-26T13:31:20Z</time>
      </trkpt>
      <trkpt lat="44.90669" lon="4.42588">
        <ele>444</ele>
        <time>2011-02-26T13:31:23Z</time>
      </trkpt>
      <trkpt lat="44.90665" lon="4.42596">
        <ele>445</ele>
        <time>2011-02-26T13:31:33Z</time>
      </trkpt>
      <trkpt lat="44.90677" lon="4.42604">
        <ele>449</ele>
        <time>2011-02-26T13:31:48Z</time>
      </trkpt>
      <trkpt lat="44.9068" lon="4.42612">
        <ele>449</ele>
        <time>2011-02-26T13:31:55Z</time>
      </trkpt>
      <trkpt lat="44.90686" lon="4.42617">
        <ele>450</ele>
        <time>2011-02-26T13:32:03Z</time>
      </trkpt>
      <trkpt lat="44.90685" lon="4.42618">
        <ele>451</ele>
        <time>2011-02-26T13:32:05Z</time>
      </trkpt>
      <trkpt lat="44.90695" lon="4.42637">
        <ele>454</ele>
        <time>2011-02-26T13:32:25Z</time>
      </trkpt>
      <trkpt lat="44.90695" lon="4.42641">
        <ele>454</ele>
        <time>2011-02-26T13:32:32Z</time>
      </trkpt>
      <trkpt lat="44.90697" lon="4.42646">
        <ele>453</ele>
        <time>2011-02-26T13:32:36Z</time>
      </trkpt>
      <trkpt lat="44.907" lon="4.42649">
        <ele>453</ele>
        <time>2011-02-26T13:32:40Z</time>
      </trkpt>
      <trkpt lat="44.90709" lon="4.42666">
        <ele>454</ele>
        <time>2011-02-26T13:32:54Z</time>
      </trkpt>
      <trkpt lat="44.90711" lon="4.42671">
        <ele>454</ele>
        <time>2011-02-26T13:32:58Z</time>
      </trkpt>
      <trkpt lat="44.90711" lon="4.42673">
        <ele>454</ele>
        <time>2011-02-26T13:33:00Z</time>
      </trkpt>
      <trkpt lat="44.90713" lon="4.42685">
        <ele>455</ele>
        <time>2011-02-26T13:33:16Z</time>
      </trkpt>
      <trkpt lat="44.90714" lon="4.42688">
        <ele>455</ele>
        <time>2011-02-26T13:33:19Z</time>
      </trkpt>
      <trkpt lat="44.90716" lon="4.42698">
        <ele>456</ele>
        <time>2011-02-26T13:33:26Z</time>
      </trkpt>
      <trkpt lat="44.90714" lon="4.42707">
        <ele>456</ele>
        <time>2011-02-26T13:33:32Z</time>
      </trkpt>
      <trkpt lat="44.90712" lon="4.4272">
        <ele>457</ele>
        <time>2011-02-26T13:33:40Z</time>
      </trkpt>
      <trkpt lat="44.90708" lon="4.42721">
        <ele>458</ele>
        <time>2011-02-26T13:33:44Z</time>
      </trkpt>
      <trkpt lat="44.90692" lon="4.42732">
        <ele>457</ele>
        <time>2011-02-26T13:34:00Z</time>
      </trkpt>
      <trkpt lat="44.90674" lon="4.42748">
        <ele>456</ele>
        <time>2011-02-26T13:34:15Z</time>
      </trkpt>
      <trkpt lat="44.90672" lon="4.42751">
        <ele>456</ele>
        <time>2011-02-26T13:34:18Z</time>
      </trkpt>
      <trkpt lat="44.90669" lon="4.42765">
        <ele>456</ele>
        <time>2011-02-26T13:34:31Z</time>
      </trkpt>
      <trkpt lat="44.90662" lon="4.42782">
        <ele>455</ele>
        <time>2011-02-26T13:34:44Z</time>
      </trkpt>
      <trkpt lat="44.90662" lon="4.42789">
        <ele>455</ele>
        <time>2011-02-26T13:34:48Z</time>
      </trkpt>
      <trkpt lat="44.90661" lon="4.42792">
        <ele>455</ele>
        <time>2011-02-26T13:34:50Z</time>
      </trkpt>
      <trkpt lat="44.90663" lon="4.42805">
        <ele>455</ele>
        <time>2011-02-26T13:34:56Z</time>
      </trkpt>
      <trkpt lat="44.90664" lon="4.42814">
        <ele>455</ele>
        <time>2011-02-26T13:35:00Z</time>
      </trkpt>
      <trkpt lat="44.90658" lon="4.42833">
        <ele>455</ele>
        <time>2011-02-26T13:35:15Z</time>
      </trkpt>
      <trkpt lat="44.90657" lon="4.42837">
        <ele>455</ele>
        <time>2011-02-26T13:35:18Z</time>
      </trkpt>
      <trkpt lat="44.90657" lon="4.42841">
        <ele>455</ele>
        <time>2011-02-26T13:35:21Z</time>
      </trkpt>
      <trkpt lat="44.90654" lon="4.42854">
        <ele>455</ele>
        <time>2011-02-26T13:35:31Z</time>
      </trkpt>
      <trkpt lat="44.90646" lon="4.42856">
        <ele>454</ele>
        <time>2011-02-26T13:35:37Z</time>
      </trkpt>
      <trkpt lat="44.90646" lon="4.42866">
        <ele>454</ele>
        <time>2011-02-26T13:35:43Z</time>
      </trkpt>
      <trkpt lat="44.9065" lon="4.42894">
        <ele>454</ele>
        <time>2011-02-26T13:35:58Z</time>
      </trkpt>
      <trkpt lat="44.9065" lon="4.42904">
        <ele>454</ele>
        <time>2011-02-26T13:36:03Z</time>
      </trkpt>
      <trkpt lat="44.90635" lon="4.42911">
        <ele>454</ele>
        <time>2011-02-26T13:36:10Z</time>
      </trkpt>
      <trkpt lat="44.90633" lon="4.42938">
        <ele>456</ele>
        <time>2011-02-26T13:36:26Z</time>
      </trkpt>
      <trkpt lat="44.90635" lon="4.4294">
        <ele>456</ele>
        <time>2011-02-26T13:36:33Z</time>
      </trkpt>
      <trkpt lat="44.90637" lon="4.42943">
        <ele>457</ele>
        <time>2011-02-26T13:36:36Z</time>
      </trkpt>
      <trkpt lat="44.90644" lon="4.42942">
        <ele>458</ele>
        <time>2011-02-26T13:36:47Z</time>
      </trkpt>
      <trkpt lat="44.9064" lon="4.42949">
        <ele>458</ele>
        <time>2011-02-26T13:36:54Z</time>
      </trkpt>
      <trkpt lat="44.90642" lon="4.42952">
        <ele>458</ele>
        <time>2011-02-26T13:36:57Z</time>
      </trkpt>
      <trkpt lat="44.90651" lon="4.42958">
        <ele>462</ele>
        <time>2011-02-26T13:37:13Z</time>
      </trkpt>
      <trkpt lat="44.90651" lon="4.42961">
        <ele>462</ele>
        <time>2011-02-26T13:37:14Z</time>
      </trkpt>
      <trkpt lat="44.90657" lon="4.42964">
        <ele>465</ele>
        <time>2011-02-26T13:37:26Z</time>
      </trkpt>
      <trkpt lat="44.90662" lon="4.42968">
        <ele>466</ele>
        <time>2011-02-26T13:37:42Z</time>
      </trkpt>
      <trkpt lat="44.90665" lon="4.42971">
        <ele>469</ele>
        <time>2011-02-26T13:37:54Z</time>
      </trkpt>
      <trkpt lat="44.90667" lon="4.42973">
        <ele>470</ele>
        <time>2011-02-26T13:38:01Z</time>
      </trkpt>
      <trkpt lat="44.90666" lon="4.42967">
        <ele>471</ele>
        <time>2011-02-26T13:38:07Z</time>
      </trkpt>
      <trkpt lat="44.90675" lon="4.42951">
        <ele>471</ele>
        <time>2011-02-26T13:38:20Z</time>
      </trkpt>
      <trkpt lat="44.90681" lon="4.42945">
        <ele>474</ele>
        <time>2011-02-26T13:38:34Z</time>
      </trkpt>
      <trkpt lat="44.90682" lon="4.42947">
        <ele>476</ele>
        <time>2011-02-26T13:38:42Z</time>
      </trkpt>
      <trkpt lat="44.90682" lon="4.42948">
        <ele>479</ele>
        <time>2011-02-26T13:38:54Z</time>
      </trkpt>
      <trkpt lat="44.90688" lon="4.42955">
        <ele>481</ele>
        <time>2011-02-26T13:39:08Z</time>
      </trkpt>
      <trkpt lat="44.90701" lon="4.4294">
        <ele>484</ele>
        <time>2011-02-26T13:39:24Z</time>
      </trkpt>
      <trkpt lat="44.90701" lon="4.4294">
        <ele>484</ele>
        <time>2011-02-26T13:39:25Z</time>
      </trkpt>
      <trkpt lat="44.90702" lon="4.42934">
        <ele>485</ele>
        <time>2011-02-26T13:39:41Z</time>
      </trkpt>
      <trkpt lat="44.90705" lon="4.42936">
        <ele>485</ele>
        <time>2011-02-26T13:40:14Z</time>
      </trkpt>
      <trkpt lat="44.90716" lon="4.42939">
        <ele>486</ele>
        <time>2011-02-26T13:40:22Z</time>
      </trkpt>
      <trkpt lat="44.90724" lon="4.42944">
        <ele>488</ele>
        <time>2011-02-26T13:40:31Z</time>
      </trkpt>
      <trkpt lat="44.90724" lon="4.42946">
        <ele>490</ele>
        <time>2011-02-26T13:40:45Z</time>
      </trkpt>
      <trkpt lat="44.90732" lon="4.42948">
        <ele>490</ele>
        <time>2011-02-26T13:40:56Z</time>
      </trkpt>
      <trkpt lat="44.90735" lon="4.42954">
        <ele>491</ele>
        <time>2011-02-26T13:41:04Z</time>
      </trkpt>
      <trkpt lat="44.90729" lon="4.42961">
        <ele>494</ele>
        <time>2011-02-26T13:41:14Z</time>
      </trkpt>
      <trkpt lat="44.90722" lon="4.42973">
        <ele>495</ele>
        <time>2011-02-26T13:41:34Z</time>
      </trkpt>
      <trkpt lat="44.9071" lon="4.42965">
        <ele>493</ele>
        <time>2011-02-26T13:41:48Z</time>
      </trkpt>
      <trkpt lat="44.90712" lon="4.42968">
        <ele>493</ele>
        <time>2011-02-26T13:41:51Z</time>
      </trkpt>
      <trkpt lat="44.90715" lon="4.42965">
        <ele>494</ele>
        <time>2011-02-26T13:42:02Z</time>
      </trkpt>
      <trkpt lat="44.90717" lon="4.4297">
        <ele>494</ele>
        <time>2011-02-26T13:42:07Z</time>
      </trkpt>
      <trkpt lat="44.9073" lon="4.42987">
        <ele>498</ele>
        <time>2011-02-26T13:42:25Z</time>
      </trkpt>
      <trkpt lat="44.90732" lon="4.43">
        <ele>498</ele>
        <time>2011-02-26T13:42:59Z</time>
      </trkpt>
      <trkpt lat="44.90742" lon="4.4301">
        <ele>498</ele>
        <time>2011-02-26T13:43:11Z</time>
      </trkpt>
      <trkpt lat="44.90745" lon="4.43032">
        <ele>499</ele>
        <time>2011-02-26T13:43:29Z</time>
      </trkpt>
      <trkpt lat="44.90737" lon="4.4305">
        <ele>499</ele>
        <time>2011-02-26T13:43:45Z</time>
      </trkpt>
      <trkpt lat="44.90734" lon="4.43065">
        <ele>499</ele>
        <time>2011-02-26T13:44:02Z</time>
      </trkpt>
      <trkpt lat="44.90729" lon="4.43071">
        <ele>499</ele>
        <time>2011-02-26T13:44:08Z</time>
      </trkpt>
      <trkpt lat="44.90725" lon="4.43079">
        <ele>499</ele>
        <time>2011-02-26T13:44:23Z</time>
      </trkpt>
      <trkpt lat="44.90725" lon="4.43094">
        <ele>500</ele>
        <time>2011-02-26T13:44:57Z</time>
      </trkpt>
      <trkpt lat="44.90727" lon="4.43119">
        <ele>502</ele>
        <time>2011-02-26T13:45:18Z</time>
      </trkpt>
      <trkpt lat="44.90726" lon="4.43131">
        <ele>502</ele>
        <time>2011-02-26T13:45:23Z</time>
      </trkpt>
      <trkpt lat="44.9073" lon="4.43147">
        <ele>502</ele>
        <time>2011-02-26T13:45:34Z</time>
      </trkpt>
      <trkpt lat="44.90727" lon="4.43156">
        <ele>502</ele>
        <time>2011-02-26T13:45:41Z</time>
      </trkpt>
      <trkpt lat="44.90722" lon="4.43173">
        <ele>503</ele>
        <time>2011-02-26T13:45:56Z</time>
      </trkpt>
      <trkpt lat="44.90721" lon="4.43175">
        <ele>502</ele>
        <time>2011-02-26T13:46:26Z</time>
      </trkpt>
      <trkpt lat="44.90718" lon="4.43179">
        <ele>503</ele>
        <time>2011-02-26T13:46:29Z</time>
      </trkpt>
      <trkpt lat="44.90717" lon="4.43195">
        <ele>505</ele>
        <time>2011-02-26T13:46:47Z</time>
      </trkpt>
      <trkpt lat="44.90711" lon="4.43202">
        <ele>507</ele>
        <time>2011-02-26T13:47:01Z</time>
      </trkpt>
      <trkpt lat="44.90704" lon="4.43198">
        <ele>509</ele>
        <time>2011-02-26T13:47:13Z</time>
      </trkpt>
      <trkpt lat="44.90695" lon="4.4318">
        <ele>510</ele>
        <time>2011-02-26T13:47:34Z</time>
      </trkpt>
      <trkpt lat="44.90687" lon="4.43191">
        <ele>513</ele>
        <time>2011-02-26T13:47:47Z</time>
      </trkpt>
      <trkpt lat="44.90676" lon="4.4318">
        <ele>515</ele>
        <time>2011-02-26T13:48:12Z</time>
      </trkpt>
      <trkpt lat="44.90678" lon="4.43179">
        <ele>515</ele>
        <time>2011-02-26T13:48:35Z</time>
      </trkpt>
      <trkpt lat="44.90681" lon="4.43201">
        <ele>517</ele>
        <time>2011-02-26T13:48:53Z</time>
      </trkpt>
      <trkpt lat="44.90671" lon="4.43215">
        <ele>519</ele>
        <time>2011-02-26T13:49:12Z</time>
      </trkpt>
      <trkpt lat="44.90652" lon="4.43249">
        <ele>522</ele>
        <time>2011-02-26T13:49:51Z</time>
      </trkpt>
      <trkpt lat="44.9065" lon="4.43256">
        <ele>523</ele>
        <time>2011-02-26T13:49:59Z</time>
      </trkpt>
      <trkpt lat="44.90649" lon="4.4327">
        <ele>524</ele>
        <time>2011-02-26T13:50:14Z</time>
      </trkpt>
      <trkpt lat="44.90653" lon="4.43301">
        <ele>527</ele>
        <time>2011-02-26T13:50:39Z</time>
      </trkpt>
      <trkpt lat="44.9064" lon="4.43321">
        <ele>529</ele>
        <time>2011-02-26T13:51:04Z</time>
      </trkpt>
      <trkpt lat="44.90632" lon="4.43332">
        <ele>532</ele>
        <time>2011-02-26T13:51:27Z</time>
      </trkpt>
      <trkpt lat="44.9063" lon="4.43347">
        <ele>534</ele>
        <time>2011-02-26T13:51:37Z</time>
      </trkpt>
      <trkpt lat="44.90619" lon="4.43357">
        <ele>536</ele>
        <time>2011-02-26T13:51:56Z</time>
      </trkpt>
      <trkpt lat="44.90609" lon="4.43345">
        <ele>538</ele>
        <time>2011-02-26T13:52:10Z</time>
      </trkpt>
      <trkpt lat="44.90599" lon="4.43358">
        <ele>539</ele>
        <time>2011-02-26T13:52:27Z</time>
      </trkpt>
      <trkpt lat="44.90597" lon="4.43369">
        <ele>540</ele>
        <time>2011-02-26T13:52:42Z</time>
      </trkpt>
      <trkpt lat="44.90591" lon="4.43389">
        <ele>542</ele>
        <time>2011-02-26T13:53:01Z</time>
      </trkpt>
      <trkpt lat="44.9059" lon="4.43406">
        <ele>543</ele>
        <time>2011-02-26T13:53:14Z</time>
      </trkpt>
      <trkpt lat="44.90585" lon="4.43431">
        <ele>544</ele>
        <time>2011-02-26T13:53:43Z</time>
      </trkpt>
      <trkpt lat="44.90573" lon="4.43432">
        <ele>546</ele>
        <time>2011-02-26T13:54:03Z</time>
      </trkpt>
      <trkpt lat="44.90565" lon="4.43431">
        <ele>549</ele>
        <time>2011-02-26T13:54:24Z</time>
      </trkpt>
      <trkpt lat="44.90565" lon="4.43447">
        <ele>551</ele>
        <time>2011-02-26T13:54:43Z</time>
      </trkpt>
      <trkpt lat="44.90568" lon="4.43475">
        <ele>554</ele>
        <time>2011-02-26T13:55:05Z</time>
      </trkpt>
      <trkpt lat="44.90562" lon="4.43496">
        <ele>556</ele>
        <time>2011-02-26T13:55:21Z</time>
      </trkpt>
      <trkpt lat="44.90557" lon="4.43494">
        <ele>556</ele>
        <time>2011-02-26T13:55:28Z</time>
      </trkpt>
      <trkpt lat="44.90552" lon="4.43508">
        <ele>557</ele>
        <time>2011-02-26T13:55:41Z</time>
      </trkpt>
      <trkpt lat="44.9055" lon="4.43522">
        <ele>558</ele>
        <time>2011-02-26T13:55:55Z</time>
      </trkpt>
      <trkpt lat="44.90546" lon="4.43537">
        <ele>561</ele>
        <time>2011-02-26T13:56:10Z</time>
      </trkpt>
      <trkpt lat="44.90534" lon="4.4356">
        <ele>562</ele>
        <time>2011-02-26T13:56:27Z</time>
      </trkpt>
      <trkpt lat="44.90527" lon="4.4357">
        <ele>564</ele>
        <time>2011-02-26T13:56:45Z</time>
      </trkpt>
      <trkpt lat="44.90525" lon="4.43594">
        <ele>565</ele>
        <time>2011-02-26T13:57:28Z</time>
      </trkpt>
      <trkpt lat="44.90522" lon="4.43616">
        <ele>568</ele>
        <time>2011-02-26T13:57:51Z</time>
      </trkpt>
      <trkpt lat="44.9052" lon="4.43627">
        <ele>568</ele>
        <time>2011-02-26T13:58:21Z</time>
      </trkpt>
      <trkpt lat="44.90516" lon="4.4365">
        <ele>571</ele>
        <time>2011-02-26T13:58:38Z</time>
      </trkpt>
      <trkpt lat="44.90513" lon="4.43672">
        <ele>574</ele>
        <time>2011-02-26T13:59:01Z</time>
      </trkpt>
      <trkpt lat="44.9051" lon="4.43689">
        <ele>575</ele>
        <time>2011-02-26T13:59:24Z</time>
      </trkpt>
      <trkpt lat="44.90504" lon="4.437">
        <ele>577</ele>
        <time>2011-02-26T13:59:38Z</time>
      </trkpt>
      <trkpt lat="44.90499" lon="4.43709">
        <ele>579</ele>
        <time>2011-02-26T13:59:51Z</time>
      </trkpt>
      <trkpt lat="44.905" lon="4.43721">
        <ele>581</ele>
        <time>2011-02-26T14:00:03Z</time>
      </trkpt>
      <trkpt lat="44.90496" lon="4.4374">
        <ele>584</ele>
        <time>2011-02-26T14:00:20Z</time>
      </trkpt>
      <trkpt lat="44.90496" lon="4.43756">
        <ele>587</ele>
        <time>2011-02-26T14:00:34Z</time>
      </trkpt>
      <trkpt lat="44.90495" lon="4.4378">
        <ele>590</ele>
        <time>2011-02-26T14:00:52Z</time>
      </trkpt>
      <trkpt lat="44.90494" lon="4.43795">
        <ele>591</ele>
        <time>2011-02-26T14:01:15Z</time>
      </trkpt>
      <trkpt lat="44.90492" lon="4.43815">
        <ele>594</ele>
        <time>2011-02-26T14:01:41Z</time>
      </trkpt>
      <trkpt lat="44.90492" lon="4.43831">
        <ele>596</ele>
        <time>2011-02-26T14:02:12Z</time>
      </trkpt>
      <trkpt lat="44.90491" lon="4.43853">
        <ele>600</ele>
        <time>2011-02-26T14:02:27Z</time>
      </trkpt>
      <trkpt lat="44.90496" lon="4.43873">
        <ele>603</ele>
        <time>2011-02-26T14:02:46Z</time>
      </trkpt>
      <trkpt lat="44.90496" lon="4.43902">
        <ele>605</ele>
        <time>2011-02-26T14:03:07Z</time>
      </trkpt>
      <trkpt lat="44.90499" lon="4.43931">
        <ele>608</ele>
        <time>2011-02-26T14:03:29Z</time>
      </trkpt>
      <trkpt lat="44.90499" lon="4.43948">
        <ele>611</ele>
        <time>2011-02-26T14:03:44Z</time>
      </trkpt>
      <trkpt lat="44.905" lon="4.43955">
        <ele>612</ele>
        <time>2011-02-26T14:04:31Z</time>
      </trkpt>
      <trkpt lat="44.90486" lon="4.43964">
        <ele>614</ele>
        <time>2011-02-26T14:04:47Z</time>
      </trkpt>
      <trkpt lat="44.90472" lon="4.4397">
        <ele>616</ele>
        <time>2011-02-26T14:05:06Z</time>
      </trkpt>
      <trkpt lat="44.90469" lon="4.43971">
        <ele>616</ele>
        <time>2011-02-26T14:05:08Z</time>
      </trkpt>
      <trkpt lat="44.90461" lon="4.43976">
        <ele>617</ele>
        <time>2011-02-26T14:05:25Z</time>
      </trkpt>
      <trkpt lat="44.9046" lon="4.43979">
        <ele>617</ele>
        <time>2011-02-26T14:05:51Z</time>
      </trkpt>
      <trkpt lat="44.90455" lon="4.43988">
        <ele>617</ele>
        <time>2011-02-26T14:05:58Z</time>
      </trkpt>
      <trkpt lat="44.90456" lon="4.43997">
        <ele>617</ele>
        <time>2011-02-26T14:06:16Z</time>
      </trkpt>
      <trkpt lat="44.90451" lon="4.44021">
        <ele>618</ele>
        <time>2011-02-26T14:06:34Z</time>
      </trkpt>
      <trkpt lat="44.90454" lon="4.44059">
        <ele>622</ele>
        <time>2011-02-26T14:07:09Z</time>
      </trkpt>
      <trkpt lat="44.90454" lon="4.44064">
        <ele>622</ele>
        <time>2011-02-26T14:07:13Z</time>
      </trkpt>
      <trkpt lat="44.90448" lon="4.44089">
        <ele>622</ele>
        <time>2011-02-26T14:07:17Z</time>
      </trkpt>
      <trkpt lat="44.90448" lon="4.44105">
        <ele>624</ele>
        <time>2011-02-26T14:07:34Z</time>
      </trkpt>
      <trkpt lat="44.90442" lon="4.44128">
        <ele>626</ele>
        <time>2011-02-26T14:07:54Z</time>
      </trkpt>
      <trkpt lat="44.90435" lon="4.4415">
        <ele>627</ele>
        <time>2011-02-26T14:08:17Z</time>
      </trkpt>
      <trkpt lat="44.90424" lon="4.4416">
        <ele>627</ele>
        <time>2011-02-26T14:08:32Z</time>
      </trkpt>
      <trkpt lat="44.9041" lon="4.44178">
        <ele>627</ele>
        <time>2011-02-26T14:08:54Z</time>
      </trkpt>
      <trkpt lat="44.90396" lon="4.44194">
        <ele>627</ele>
        <time>2011-02-26T14:09:10Z</time>
      </trkpt>
      <trkpt lat="44.90375" lon="4.44199">
        <ele>629</ele>
        <time>2011-02-26T14:09:30Z</time>
      </trkpt>
      <trkpt lat="44.90361" lon="4.44216">
        <ele>630</ele>
        <time>2011-02-26T14:09:51Z</time>
      </trkpt>
      <trkpt lat="44.90358" lon="4.44221">
        <ele>630</ele>
        <time>2011-02-26T14:09:56Z</time>
      </trkpt>
      <trkpt lat="44.90349" lon="4.44235">
        <ele>630</ele>
        <time>2011-02-26T14:10:10Z</time>
      </trkpt>
      <trkpt lat="44.90344" lon="4.44247">
        <ele>632</ele>
        <time>2011-02-26T14:10:20Z</time>
      </trkpt>
      <trkpt lat="44.90338" lon="4.44267">
        <ele>632</ele>
        <time>2011-02-26T14:10:48Z</time>
      </trkpt>
      <trkpt lat="44.90331" lon="4.44309">
        <ele>633</ele>
        <time>2011-02-26T14:11:21Z</time>
      </trkpt>
      <trkpt lat="44.90329" lon="4.44349">
        <ele>635</ele>
        <time>2011-02-26T14:11:50Z</time>
      </trkpt>
      <trkpt lat="44.90337" lon="4.44375">
        <ele>635</ele>
        <time>2011-02-26T14:12:19Z</time>
      </trkpt>
      <trkpt lat="44.90331" lon="4.44399">
        <ele>635</ele>
        <time>2011-02-26T14:13:05Z</time>
      </trkpt>
      <trkpt lat="44.90336" lon="4.44396">
        <ele>634</ele>
        <time>2011-02-26T14:13:34Z</time>
      </trkpt>
      <trkpt lat="44.90351" lon="4.44398">
        <ele>633</ele>
        <time>2011-02-26T14:13:57Z</time>
      </trkpt>
      <trkpt lat="44.9037" lon="4.4442">
        <ele>633</ele>
        <time>2011-02-26T14:14:25Z</time>
      </trkpt>
      <trkpt lat="44.90392" lon="4.44441">
        <ele>630</ele>
        <time>2011-02-26T14:14:58Z</time>
      </trkpt>
      <trkpt lat="44.90399" lon="4.44456">
        <ele>629</ele>
        <time>2011-02-26T14:15:28Z</time>
      </trkpt>
      <trkpt lat="44.90412" lon="4.4448">
        <ele>628</ele>
        <time>2011-02-26T14:15:48Z</time>
      </trkpt>
      <trkpt lat="44.90429" lon="4.4452">
        <ele>626</ele>
        <time>2011-02-26T14:16:17Z</time>
      </trkpt>
      <trkpt lat="44.90426" lon="4.44569">
        <ele>624</ele>
        <time>2011-02-26T14:16:42Z</time>
      </trkpt>
      <trkpt lat="44.90425" lon="4.4459">
        <ele>624</ele>
        <time>2011-02-26T14:16:58Z</time>
      </trkpt>
      <trkpt lat="44.90417" lon="4.44647">
        <ele>623</ele>
        <time>2011-02-26T14:17:31Z</time>
      </trkpt>
      <trkpt lat="44.90423" lon="4.44673">
        <ele>624</ele>
        <time>2011-02-26T14:17:48Z</time>
      </trkpt>
      <trkpt lat="44.90431" lon="4.44707">
        <ele>624</ele>
        <time>2011-02-26T14:18:09Z</time>
      </trkpt>
      <trkpt lat="44.90443" lon="4.44726">
        <ele>625</ele>
        <time>2011-02-26T14:18:28Z</time>
      </trkpt>
      <trkpt lat="44.90448" lon="4.44753">
        <ele>625</ele>
        <time>2011-02-26T14:18:47Z</time>
      </trkpt>
      <trkpt lat="44.90442" lon="4.44787">
        <ele>626</ele>
        <time>2011-02-26T14:19:11Z</time>
      </trkpt>
      <trkpt lat="44.9043" lon="4.44807">
        <ele>628</ele>
        <time>2011-02-26T14:19:32Z</time>
      </trkpt>
      <trkpt lat="44.90424" lon="4.44815">
        <ele>628</ele>
        <time>2011-02-26T14:19:56Z</time>
      </trkpt>
      <trkpt lat="44.90407" lon="4.44828">
        <ele>629</ele>
        <time>2011-02-26T14:20:14Z</time>
      </trkpt>
      <trkpt lat="44.904" lon="4.44843">
        <ele>630</ele>
        <time>2011-02-26T14:20:32Z</time>
      </trkpt>
      <trkpt lat="44.90395" lon="4.44868">
        <ele>631</ele>
        <time>2011-02-26T14:20:50Z</time>
      </trkpt>
      <trkpt lat="44.90381" lon="4.44905">
        <ele>632</ele>
        <time>2011-02-26T14:21:12Z</time>
      </trkpt>
      <trkpt lat="44.90376" lon="4.4493">
        <ele>633</ele>
        <time>2011-02-26T14:21:31Z</time>
      </trkpt>
      <trkpt lat="44.90376" lon="4.44948">
        <ele>633</ele>
        <time>2011-02-26T14:21:46Z</time>
      </trkpt>
      <trkpt lat="44.90376" lon="4.44977">
        <ele>634</ele>
        <time>2011-02-26T14:22:05Z</time>
      </trkpt>
      <trkpt lat="44.90377" lon="4.45007">
        <ele>635</ele>
        <time>2011-02-26T14:22:25Z</time>
      </trkpt>
      <trkpt lat="44.90364" lon="4.45028">
        <ele>636</ele>
        <time>2011-02-26T14:22:42Z</time>
      </trkpt>
      <trkpt lat="44.90351" lon="4.45058">
        <ele>636</ele>
        <time>2011-02-26T14:23:08Z</time>
      </trkpt>
      <trkpt lat="44.90333" lon="4.45089">
        <ele>635</ele>
        <time>2011-02-26T14:23:25Z</time>
      </trkpt>
      <trkpt lat="44.90327" lon="4.45101">
        <ele>635</ele>
        <time>2011-02-26T14:23:32Z</time>
      </trkpt>
      <trkpt lat="44.90328" lon="4.45126">
        <ele>635</ele>
        <time>2011-02-26T14:23:51Z</time>
      </trkpt>
      <trkpt lat="44.90331" lon="4.45167">
        <ele>634</ele>
        <time>2011-02-26T14:24:09Z</time>
      </trkpt>
      <trkpt lat="44.90332" lon="4.45178">
        <ele>634</ele>
        <time>2011-02-26T14:24:16Z</time>
      </trkpt>
      <trkpt lat="44.90332" lon="4.45185">
        <ele>634</ele>
        <time>2011-02-26T14:24:21Z</time>
      </trkpt>
      <trkpt lat="44.90334" lon="4.45198">
        <ele>634</ele>
        <time>2011-02-26T14:24:27Z</time>
      </trkpt>
      <trkpt lat="44.90336" lon="4.45219">
        <ele>633</ele>
        <time>2011-02-26T14:24:42Z</time>
      </trkpt>
      <trkpt lat="44.90344" lon="4.45243">
        <ele>632</ele>
        <time>2011-02-26T14:24:58Z</time>
      </trkpt>
      <trkpt lat="44.90345" lon="4.45249">
        <ele>632</ele>
        <time>2011-02-26T14:25:01Z</time>
      </trkpt>
      <trkpt lat="44.90347" lon="4.45261">
        <ele>631</ele>
        <time>2011-02-26T14:25:07Z</time>
      </trkpt>
      <trkpt lat="44.90348" lon="4.45275">
        <ele>629</ele>
        <time>2011-02-26T14:25:17Z</time>
      </trkpt>
      <trkpt lat="44.90348" lon="4.45314">
        <ele>627</ele>
        <time>2011-02-26T14:25:43Z</time>
      </trkpt>
      <trkpt lat="44.90351" lon="4.45323">
        <ele>627</ele>
        <time>2011-02-26T14:25:58Z</time>
      </trkpt>
      <trkpt lat="44.90348" lon="4.45331">
        <ele>627</ele>
        <time>2011-02-26T14:26:03Z</time>
      </trkpt>
      <trkpt lat="44.90342" lon="4.45357">
        <ele>627</ele>
        <time>2011-02-26T14:26:18Z</time>
      </trkpt>
      <trkpt lat="44.90336" lon="4.45375">
        <ele>627</ele>
        <time>2011-02-26T14:26:27Z</time>
      </trkpt>
      <trkpt lat="44.90334" lon="4.45386">
        <ele>626</ele>
        <time>2011-02-26T14:26:42Z</time>
      </trkpt>
      <trkpt lat="44.90334" lon="4.45406">
        <ele>624</ele>
        <time>2011-02-26T14:26:57Z</time>
      </trkpt>
      <trkpt lat="44.90326" lon="4.45441">
        <ele>623</ele>
        <time>2011-02-26T14:27:17Z</time>
      </trkpt>
      <trkpt lat="44.90324" lon="4.45456">
        <ele>623</ele>
        <time>2011-02-26T14:27:28Z</time>
      </trkpt>
      <trkpt lat="44.90323" lon="4.45461">
        <ele>623</ele>
        <time>2011-02-26T14:27:32Z</time>
      </trkpt>
      <trkpt lat="44.90319" lon="4.45467">
        <ele>623</ele>
        <time>2011-02-26T14:27:37Z</time>
      </trkpt>
      <trkpt lat="44.90316" lon="4.45471">
        <ele>623</ele>
        <time>2011-02-26T14:27:41Z</time>
      </trkpt>
      <trkpt lat="44.90316" lon="4.45475">
        <ele>623</ele>
        <time>2011-02-26T14:27:43Z</time>
      </trkpt>
      <trkpt lat="44.9031" lon="4.45487">
        <ele>623</ele>
        <time>2011-02-26T14:27:53Z</time>
      </trkpt>
      <trkpt lat="44.90307" lon="4.45495">
        <ele>624</ele>
        <time>2011-02-26T14:27:59Z</time>
      </trkpt>
      <trkpt lat="44.90305" lon="4.45507">
        <ele>623</ele>
        <time>2011-02-26T14:28:07Z</time>
      </trkpt>
      <trkpt lat="44.90298" lon="4.45526">
        <ele>624</ele>
        <time>2011-02-26T14:28:23Z</time>
      </trkpt>
      <trkpt lat="44.90283" lon="4.45559">
        <ele>625</ele>
        <time>2011-02-26T14:28:47Z</time>
      </trkpt>
      <trkpt lat="44.90265" lon="4.45591">
        <ele>625</ele>
        <time>2011-02-26T14:29:11Z</time>
      </trkpt>
      <trkpt lat="44.90261" lon="4.45595">
        <ele>624</ele>
        <time>2011-02-26T14:29:15Z</time>
      </trkpt>
      <trkpt lat="44.90257" lon="4.456">
        <ele>624</ele>
        <time>2011-02-26T14:29:18Z</time>
      </trkpt>
      <trkpt lat="44.90252" lon="4.4562">
        <ele>625</ele>
        <time>2011-02-26T14:29:35Z</time>
      </trkpt>
      <trkpt lat="44.90248" lon="4.45639">
        <ele>624</ele>
        <time>2011-02-26T14:29:48Z</time>
      </trkpt>
      <trkpt lat="44.90244" lon="4.45655">
        <ele>624</ele>
        <time>2011-02-26T14:30:00Z</time>
      </trkpt>
      <trkpt lat="44.90239" lon="4.45677">
        <ele>625</ele>
        <time>2011-02-26T14:30:15Z</time>
      </trkpt>
      <trkpt lat="44.9024" lon="4.45718">
        <ele>626</ele>
        <time>2011-02-26T14:30:37Z</time>
      </trkpt>
      <trkpt lat="44.90242" lon="4.45722">
        <ele>626</ele>
        <time>2011-02-26T14:30:41Z</time>
      </trkpt>
      <trkpt lat="44.90245" lon="4.45725">
        <ele>626</ele>
        <time>2011-02-26T14:30:44Z</time>
      </trkpt>
      <trkpt lat="44.90258" lon="4.45736">
        <ele>626</ele>
        <time>2011-02-26T14:31:00Z</time>
      </trkpt>
      <trkpt lat="44.90268" lon="4.45746">
        <ele>626</ele>
        <time>2011-02-26T14:31:12Z</time>
      </trkpt>
      <trkpt lat="44.90271" lon="4.4576">
        <ele>626</ele>
        <time>2011-02-26T14:31:26Z</time>
      </trkpt>
      <trkpt lat="44.90274" lon="4.45761">
        <ele>626</ele>
        <time>2011-02-26T14:31:42Z</time>
      </trkpt>
      <trkpt lat="44.90275" lon="4.45769">
        <ele>625</ele>
        <time>2011-02-26T14:31:47Z</time>
      </trkpt>
      <trkpt lat="44.90278" lon="4.45786">
        <ele>625</ele>
        <time>2011-02-26T14:31:58Z</time>
      </trkpt>
      <trkpt lat="44.90278" lon="4.45789">
        <ele>625</ele>
        <time>2011-02-26T14:32:00Z</time>
      </trkpt>
      <trkpt lat="44.90279" lon="4.45797">
        <ele>625</ele>
        <time>2011-02-26T14:32:06Z</time>
      </trkpt>
      <trkpt lat="44.9028" lon="4.45806">
        <ele>624</ele>
        <time>2011-02-26T14:32:12Z</time>
      </trkpt>
      <trkpt lat="44.9028" lon="4.45815">
        <ele>625</ele>
        <time>2011-02-26T14:32:16Z</time>
      </trkpt>
      <trkpt lat="44.90273" lon="4.45849">
        <ele>625</ele>
        <time>2011-02-26T14:32:35Z</time>
      </trkpt>
      <trkpt lat="44.90265" lon="4.45872">
        <ele>624</ele>
        <time>2011-02-26T14:32:49Z</time>
      </trkpt>
      <trkpt lat="44.90265" lon="4.45885">
        <ele>624</ele>
        <time>2011-02-26T14:32:59Z</time>
      </trkpt>
      <trkpt lat="44.90263" lon="4.45894">
        <ele>624</ele>
        <time>2011-02-26T14:33:03Z</time>
      </trkpt>
      <trkpt lat="44.90263" lon="4.459">
        <ele>624</ele>
        <time>2011-02-26T14:33:08Z</time>
      </trkpt>
      <trkpt lat="44.90261" lon="4.45923">
        <ele>623</ele>
        <time>2011-02-26T14:33:22Z</time>
      </trkpt>
      <trkpt lat="44.90257" lon="4.45936">
        <ele>623</ele>
        <time>2011-02-26T14:33:35Z</time>
      </trkpt>
      <trkpt lat="44.90253" lon="4.45941">
        <ele>624</ele>
        <time>2011-02-26T14:33:40Z</time>
      </trkpt>
      <trkpt lat="44.90241" lon="4.45953">
        <ele>624</ele>
        <time>2011-02-26T14:33:51Z</time>
      </trkpt>
      <trkpt lat="44.9024" lon="4.45963">
        <ele>624</ele>
        <time>2011-02-26T14:33:59Z</time>
      </trkpt>
      <trkpt lat="44.90236" lon="4.45972">
        <ele>624</ele>
        <time>2011-02-26T14:34:05Z</time>
      </trkpt>
      <trkpt lat="44.90227" lon="4.45984">
        <ele>624</ele>
        <time>2011-02-26T14:34:17Z</time>
      </trkpt>
      <trkpt lat="44.90218" lon="4.46013">
        <ele>624</ele>
        <time>2011-02-26T14:34:35Z</time>
      </trkpt>
      <trkpt lat="44.9022" lon="4.4602">
        <ele>624</ele>
        <time>2011-02-26T14:34:40Z</time>
      </trkpt>
      <trkpt lat="44.90217" lon="4.46039">
        <ele>623</ele>
        <time>2011-02-26T14:34:49Z</time>
      </trkpt>
      <trkpt lat="44.90211" lon="4.46053">
        <ele>622</ele>
        <time>2011-02-26T14:35:00Z</time>
      </trkpt>
      <trkpt lat="44.90206" lon="4.46061">
        <ele>622</ele>
        <time>2011-02-26T14:35:13Z</time>
      </trkpt>
      <trkpt lat="44.90197" lon="4.46075">
        <ele>621</ele>
        <time>2011-02-26T14:35:22Z</time>
      </trkpt>
      <trkpt lat="44.90193" lon="4.46097">
        <ele>621</ele>
        <time>2011-02-26T14:35:35Z</time>
      </trkpt>
    </trkseg>
  </trk>
</gpx>